createdAt,value
2022-12-15T00:01:34.119Z,99192.22
2022-12-15T00:04:25.201Z,99199.56
2022-12-15T00:07:15.420Z,99202.47
2022-12-15T00:10:05.963Z,99208.56
2022-12-15T00:12:56.301Z,99216.30
2022-12-15T00:15:46.860Z,99205.53
2022-12-15T00:18:37.400Z,99207.41
2022-12-15T00:21:27.631Z,99205.27
2022-12-15T00:24:17.928Z,99212.43
2022-12-15T00:27:08.462Z,99212.94
2022-12-15T00:29:59.471Z,99210.52
2022-12-15T00:32:52.052Z,99214.04
2022-12-15T00:35:42.507Z,99210.03
2022-12-15T00:38:34.135Z,99211.91
2022-12-15T00:41:07.533Z,99218.96
2022-12-15T00:43:40.712Z,99227.80
2022-12-15T00:46:32.118Z,99213.01
2022-12-15T00:49:06.615Z,99230.27
2022-12-15T00:51:57.217Z,99227.03
2022-12-15T00:54:47.820Z,99219.58
2022-12-15T00:57:38.157Z,99224.67
2022-12-15T01:00:31.295Z,99218.80
2022-12-15T01:03:22.977Z,99231.45
2022-12-15T01:06:13.772Z,99222.93
2022-12-15T01:09:04.708Z,99220.48
2022-12-15T01:11:55.205Z,99232.91
2022-12-15T01:14:46.640Z,99249.38
2022-12-15T01:17:38.108Z,99238.67
2022-12-15T01:20:20.119Z,99244.42
2022-12-15T01:22:55.189Z,99252.90
2022-12-15T01:25:29.224Z,99251.61
2022-12-15T01:28:02.190Z,99251.95
2022-12-15T01:30:35.315Z,99263.39
2022-12-15T01:33:08.418Z,99269.83
2022-12-15T01:35:42.093Z,99263.63
2022-12-15T01:38:15.224Z,99265.08
2022-12-15T01:40:55.684Z,99264.77
2022-12-15T01:43:31.868Z,99267.99
2022-12-15T01:46:08.017Z,99261.89
2022-12-15T01:48:48.194Z,99257.48
2022-12-15T01:51:29.387Z,99250.41
2022-12-15T01:54:05.448Z,99258.81
2022-12-15T01:56:41.514Z,99269.00
2022-12-15T01:59:17.505Z,99275.87
2022-12-15T02:01:50.886Z,99277.64
2022-12-15T02:04:26.014Z,99278.52
2022-12-15T02:06:59.099Z,99286.28
2022-12-15T02:09:32.881Z,99281.49
2022-12-15T02:12:10.745Z,99284.37
2022-12-15T02:14:55.659Z,99285.58
2022-12-15T02:17:35.471Z,99288.42
2022-12-15T02:20:39.112Z,99291.07
2022-12-15T02:26:40.688Z,99291.93
2022-12-15T02:29:21.660Z,99293.61
2022-12-15T02:31:57.981Z,99296.39
2022-12-15T02:34:34.305Z,99295.05
2022-12-15T02:37:10.022Z,99302.12
2022-12-15T02:39:43.109Z,99306.73
2022-12-15T02:42:17.162Z,99306.30
2022-12-15T02:44:53.263Z,99297.98
2022-12-15T02:47:31.819Z,99322.98
2022-12-15T02:50:34.243Z,99309.77
2022-12-15T02:53:15.117Z,99319.70
2022-12-15T02:55:51.552Z,99309.94
2022-12-15T02:58:29.169Z,99309.35
2022-12-15T03:01:02.469Z,99304.67
2022-12-15T03:03:37.574Z,99307.64
2022-12-15T03:06:12.175Z,99307.64
2022-12-15T03:08:45.968Z,99316.26
2022-12-15T03:11:23.251Z,99307.16
2022-12-15T03:13:56.859Z,99315.09
2022-12-15T03:16:32.224Z,99308.63
2022-12-15T03:19:08.708Z,99309.31
2022-12-15T03:21:43.943Z,99299.24
2022-12-15T03:24:18.710Z,99313.19
2022-12-15T03:26:55.207Z,99315.23
2022-12-15T03:29:30.965Z,99313.78
2022-12-15T03:32:04.208Z,99307.91
2022-12-15T03:34:40.092Z,99308.88
2022-12-15T03:37:22.098Z,99304.55
2022-12-15T03:39:56.445Z,99319.84
2022-12-15T03:42:50.550Z,99318.11
2022-12-15T03:45:25.668Z,99322.98
2022-12-15T03:47:59.748Z,99321.70
2022-12-15T03:50:33.005Z,99332.77
2022-12-15T03:53:07.257Z,99322.02
2022-12-15T03:55:40.430Z,99316.11
2022-12-15T03:58:13.480Z,99330.05
2022-12-15T04:00:47.065Z,99326.05
2022-12-15T04:03:20.266Z,99322.72
2022-12-15T04:05:53.865Z,99322.81
2022-12-15T04:08:26.977Z,99327.33
2022-12-15T04:11:00.772Z,99317.13
2022-12-15T04:13:34.362Z,99321.45
2022-12-15T04:16:08.771Z,99344.59
2022-12-15T04:18:41.800Z,99331.97
2022-12-15T04:21:16.901Z,99339.72
2022-12-15T04:24:07.725Z,99342.55
2022-12-15T04:26:58.533Z,99362.18
2022-12-15T04:29:49.465Z,99355.20
2022-12-15T04:32:39.967Z,99357.76
2022-12-15T04:35:31.254Z,99357.57
2022-12-15T04:38:23.744Z,99377.76
2022-12-15T04:41:14.434Z,99366.88
2022-12-15T04:44:04.832Z,99362.67
2022-12-15T04:46:55.327Z,99376.20
2022-12-15T04:49:45.541Z,99364.32
2022-12-15T04:52:36.164Z,99373.97
2022-12-15T04:55:27.631Z,99371.52
2022-12-15T04:58:19.308Z,99374.26
2022-12-15T05:01:10.474Z,99389.38
2022-12-15T05:04:00.833Z,99396.80
2022-12-15T05:06:51.644Z,99383.27
2022-12-15T05:09:41.882Z,99394.06
2022-12-15T05:12:32.206Z,99416.67
2022-12-15T05:15:22.873Z,99405.36
2022-12-15T05:18:13.680Z,99391.83
2022-12-15T05:21:04.151Z,99405.14
2022-12-15T05:23:54.650Z,99406.82
2022-12-15T05:26:50.697Z,99400.72
2022-12-15T05:29:36.916Z,99404.08
2022-12-15T05:32:10.428Z,99415.83
2022-12-15T05:34:43.304Z,99420.06
2022-12-15T05:37:16.251Z,99421.03
2022-12-15T05:39:49.124Z,99404.08
2022-12-15T05:42:22.012Z,99408.50
2022-12-15T05:44:54.889Z,99429.30
2022-12-15T05:47:28.022Z,99425.19
2022-12-15T05:50:01.055Z,99415.67
2022-12-15T05:52:34.190Z,99413.98
2022-12-15T05:55:08.763Z,99428.42
2022-12-15T05:57:41.675Z,99431.75
2022-12-15T06:00:16.176Z,99431.98
2022-12-15T06:02:50.069Z,99421.77
2022-12-15T06:05:23.802Z,99437.27
2022-12-15T06:07:56.728Z,99426.20
2022-12-15T06:10:29.961Z,99400.43
2022-12-15T06:13:03.003Z,99423.52
2022-12-15T06:15:35.882Z,99436.86
2022-12-15T06:18:09.029Z,99430.78
2022-12-15T06:20:42.099Z,99448.94
2022-12-15T06:23:15.248Z,99436.40
2022-12-15T06:25:48.363Z,99426.88
2022-12-15T06:28:23.494Z,99445.86
2022-12-15T06:30:57.412Z,99446.86
2022-12-15T07:16:23.159Z,99459.83
2022-12-15T07:18:59.057Z,99463.99
2022-12-15T07:21:32.016Z,99467.95
2022-12-15T07:24:05.624Z,99461.94
2022-12-15T07:26:38.791Z,99454.75
2022-12-15T07:29:14.884Z,99478.28
2022-12-15T07:31:47.440Z,99475.41
2022-12-15T07:34:20.569Z,99477.69
2022-12-15T07:36:53.450Z,99471.73
2022-12-15T07:39:27.497Z,99471.55
2022-12-15T07:42:00.454Z,99481.55
2022-12-15T07:44:33.405Z,99483.11
2022-12-15T07:47:06.800Z,99471.17
2022-12-15T07:49:39.791Z,99467.91
2022-12-15T07:52:14.210Z,99474.61
2022-12-15T07:54:47.134Z,99486.77
2022-12-15T07:57:20.681Z,99486.28
2022-12-15T07:59:53.810Z,99482.64
2022-12-15T08:02:27.058Z,99489.80
2022-12-15T08:05:00.174Z,99489.89
2022-12-15T08:07:33.650Z,99474.70
2022-12-15T08:10:08.108Z,99496.87
2022-12-15T08:12:41.059Z,99494.22
2022-12-15T08:15:15.336Z,99504.15
2022-12-15T08:17:48.204Z,99507.23
2022-12-15T08:20:21.030Z,99508.08
2022-12-15T08:22:55.016Z,99515.98
2022-12-15T08:25:29.639Z,99506.59
2022-12-15T08:28:02.569Z,99501.36
2022-12-15T08:30:36.924Z,99489.66
2022-12-15T08:33:09.798Z,99479.70
2022-12-15T08:35:56.146Z,99486.44
2022-12-15T08:38:18.427Z,99503.39
2022-12-15T08:40:51.386Z,99492.31
2022-12-15T08:43:24.490Z,99490.34
2022-12-15T08:45:57.851Z,99499.73
2022-12-15T08:48:30.894Z,99510.94
2022-12-15T08:51:04.397Z,99498.39
2022-12-15T08:53:37.361Z,99512.86
2022-12-15T08:56:13.193Z,99504.30
2022-12-15T08:58:46.659Z,99503.44
2022-12-15T09:01:23.735Z,99502.02
2022-12-15T09:03:58.177Z,99516.34
2022-12-15T09:06:33.545Z,99515.59
2022-12-15T09:09:09.373Z,99537.08
2022-12-15T09:11:42.571Z,99524.70
2022-12-15T09:14:16.160Z,99525.57
2022-12-15T09:16:50.586Z,99521.59
2022-12-15T09:19:24.027Z,99533.55
2022-12-15T09:21:57.179Z,99513.94
2022-12-15T09:24:35.096Z,99534.53
2022-12-15T09:27:05.757Z,99521.02
2022-12-15T09:29:39.413Z,99533.88
2022-12-15T09:32:14.599Z,99529.55
2022-12-15T09:34:47.682Z,99532.91
2022-12-15T09:37:22.606Z,99501.53
2022-12-15T09:39:55.685Z,99510.74
2022-12-15T09:42:32.025Z,99503.87
2022-12-15T09:45:08.851Z,99499.89
2022-12-15T09:47:46.897Z,99485.03
2022-12-15T09:50:23.269Z,99485.03
2022-12-15T09:52:59.225Z,99480.84
2022-12-15T09:55:33.944Z,99459.80
2022-12-15T09:58:11.275Z,99448.48
2022-12-15T10:00:52.199Z,99450.03
2022-12-15T10:03:38.697Z,99455.02
2022-12-15T10:06:18.336Z,99454.05
2022-12-15T10:08:52.627Z,99437.75
2022-12-15T10:11:34.694Z,99428.87
2022-12-15T10:14:11.282Z,99430.08
2022-12-15T10:16:50.165Z,99417.11
2022-12-15T10:19:26.393Z,99425.42
2022-12-15T10:22:00.659Z,99416.34
2022-12-15T10:25:08.631Z,99417.17
2022-12-15T10:27:17.605Z,99436.98
2022-12-15T10:29:54.633Z,99433.47
2022-12-15T10:32:36.720Z,99417.61
2022-12-15T10:35:16.520Z,99430.20
2022-12-15T10:37:50.075Z,99428.63
2022-12-15T10:40:30.039Z,99427.03
2022-12-15T10:43:04.767Z,99427.55
2022-12-15T10:45:40.869Z,99417.50
2022-12-15T10:48:22.259Z,99423.18
2022-12-15T10:51:05.762Z,99423.18
2022-12-15T10:53:43.945Z,99420.16
2022-12-15T10:56:30.671Z,99430.83
2022-12-15T10:59:01.353Z,99429.53
2022-12-15T11:01:36.339Z,99413.33
2022-12-15T11:04:26.361Z,99415.88
2022-12-15T11:07:01.195Z,99419.53
2022-12-15T11:09:38.369Z,99411.73
2022-12-15T11:12:37.007Z,99407.30
2022-12-15T11:15:35.814Z,99413.17
2022-12-15T11:18:14.252Z,99425.63
2022-12-15T11:20:50.868Z,99440.83
2022-12-15T11:23:29.807Z,99439.48
2022-12-15T11:26:07.300Z,99447.67
2022-12-15T11:28:44.367Z,99447.91
2022-12-15T11:31:23.069Z,99449.01
2022-12-15T11:33:56.581Z,99444.87
2022-12-15T11:36:40.791Z,99450.88
2022-12-15T11:39:17.957Z,99446.66
2022-12-15T11:41:57.453Z,99436.13
2022-12-15T11:44:34.077Z,99427.51
2022-12-15T11:47:12.186Z,99424.19
2022-12-15T11:53:15.025Z,99415.64
2022-12-15T11:55:53.577Z,99401.75
2022-12-15T11:58:51.570Z,99407.53
2022-12-15T12:01:34.882Z,99406.34
2022-12-15T12:04:11.364Z,99398.55
2022-12-15T12:06:47.724Z,99402.26
2022-12-15T12:09:38.340Z,99392.58
2022-12-15T12:12:19.743Z,99388.84
2022-12-15T12:15:00.856Z,99383.54
2022-12-15T12:17:41.574Z,99373.54
2022-12-15T12:20:20.591Z,99368.44
2022-12-15T12:22:59.216Z,99366.66
2022-12-15T12:28:36.986Z,99368.95
2022-12-15T12:31:14.750Z,99361.05
2022-12-15T12:33:48.548Z,99359.08
2022-12-15T12:36:21.665Z,99354.98
2022-12-15T12:38:56.859Z,99359.75
2022-12-15T12:41:35.797Z,99351.91
2022-12-15T12:44:14.169Z,99358.65
2022-12-15T12:49:28.504Z,99350.48
2022-12-15T12:52:04.456Z,99348.73
2022-12-15T12:54:51.327Z,99356.38
2022-12-15T12:57:37.868Z,99330.47
2022-12-15T13:00:24.150Z,99331.05
2022-12-15T13:03:18.090Z,99328.41
2022-12-15T13:05:54.580Z,99327.73
2022-12-15T13:08:52.362Z,99337.49
2022-12-15T13:12:20.961Z,99319.08
2022-12-15T13:17:52.855Z,99297.55
2022-12-15T13:20:28.783Z,99299.42
2022-12-15T13:26:27.567Z,99289.51
2022-12-15T13:29:00.863Z,99281.27
2022-12-15T13:31:49.048Z,99295.67
2022-12-15T13:34:25.848Z,99270.20
2022-12-15T13:37:01.180Z,99272.42
2022-12-15T13:42:51.207Z,99267.86
2022-12-15T13:45:44.951Z,99272.91
2022-12-15T13:48:36.707Z,99270.93
2022-12-15T13:51:23.421Z,99265.84
2022-12-15T13:54:01.010Z,99259.84
2022-12-15T13:56:41.443Z,99248.98
2022-12-15T13:59:39.386Z,99252.63
2022-12-15T14:02:28.340Z,99254.08
2022-12-15T14:05:17.632Z,99250.75
2022-12-15T14:07:55.002Z,99241.67
2022-12-15T14:10:31.283Z,99242.97
2022-12-15T14:13:15.939Z,99250.98
2022-12-15T14:15:50.778Z,99249.98
2022-12-15T14:18:29.864Z,99239.02
2022-12-15T14:21:05.499Z,99246.77
2022-12-15T14:24:19.231Z,99240.99
2022-12-15T14:26:20.398Z,99235.91
2022-12-15T14:28:56.472Z,99238.73
2022-12-15T14:31:31.409Z,99232.00
2022-12-15T14:34:07.503Z,99218.69
2022-12-15T14:36:43.600Z,99211.05
2022-12-15T14:39:23.146Z,99216.14
2022-12-15T14:42:01.370Z,99216.81
2022-12-15T14:44:58.040Z,99227.88
2022-12-15T14:47:43.093Z,99220.14
2022-12-15T14:50:24.986Z,99231.23
2022-12-15T15:00:34.898Z,99203.23
2022-12-15T15:03:07.203Z,99347.39
2022-12-15T15:05:59.168Z,99197.95
2022-12-15T15:08:35.590Z,99197.31
2022-12-15T15:11:24.024Z,99212.20
2022-12-15T15:14:00.047Z,99206.59
2022-12-15T15:16:33.486Z,99224.67
2022-12-15T15:19:08.526Z,99225.34
2022-12-15T15:21:41.603Z,99228.66
2022-12-15T15:24:27.286Z,99234.42
2022-12-15T15:27:26.351Z,99227.98
2022-12-15T15:30:19.958Z,99219.25
2022-12-15T15:32:58.897Z,99220.16
2022-12-15T15:35:35.317Z,99223.81
2022-12-15T15:38:13.327Z,99230.15
2022-12-15T15:40:51.825Z,99222.41
2022-12-15T15:43:25.557Z,99220.54
2022-12-15T15:46:02.117Z,99200.95
2022-12-15T15:48:38.554Z,99202.96
2022-12-15T15:51:12.829Z,99205.11
2022-12-15T15:53:46.760Z,99200.36
2022-12-15T15:56:21.127Z,99190.55
2022-12-15T15:58:54.679Z,99192.09
2022-12-15T16:01:28.296Z,99184.16
2022-12-15T16:04:01.947Z,99163.84
2022-12-15T16:09:24.276Z,99162.77
2022-12-15T16:12:00.694Z,99125.49
2022-12-15T16:14:33.946Z,99124.39
2022-12-15T16:17:11.048Z,99121.55
2022-12-15T16:19:44.333Z,99121.95
2022-12-15T16:22:19.368Z,99107.73
2022-12-15T16:24:52.858Z,99110.17
2022-12-15T16:27:26.160Z,99115.79
2022-12-15T16:29:59.404Z,99128.50
2022-12-15T16:32:34.493Z,99114.59
2022-12-15T16:35:08.861Z,99117.56
2022-12-15T16:37:46.754Z,99102.11
2022-12-15T16:40:22.651Z,99100.00
2022-12-15T16:42:58.680Z,99083.55
2022-12-15T16:45:33.776Z,99100.00
2022-12-15T16:48:07.359Z,99094.91
2022-12-15T16:50:43.624Z,99077.25
2022-12-15T16:53:20.508Z,99083.41
2022-12-15T16:55:56.832Z,99086.42
2022-12-15T16:58:32.335Z,99062.77
2022-12-15T17:01:17.073Z,99067.62
2022-12-15T17:03:51.910Z,99074.28
2022-12-15T17:06:25.246Z,99070.16
2022-12-15T17:08:59.582Z,99048.09
2022-12-15T17:11:33.656Z,99047.72
2022-12-15T17:16:58.748Z,99031.65
2022-12-15T17:19:32.109Z,99057.31
2022-12-15T17:22:09.947Z,99041.86
2022-12-15T17:24:46.841Z,99037.20
2022-12-15T17:27:28.032Z,99044.73
2022-12-15T17:30:06.789Z,99011.55
2022-12-15T17:32:46.018Z,99021.33
2022-12-15T17:35:21.862Z,98992.80
2022-12-15T17:37:56.351Z,99009.14
2022-12-15T17:40:29.647Z,98984.11
2022-12-15T17:43:04.211Z,98981.89
2022-12-15T17:45:39.946Z,98966.22
2022-12-15T17:48:15.926Z,98966.02
2022-12-15T17:54:38.047Z,98916.78
2022-12-15T17:57:13.487Z,98933.77
2022-12-15T17:59:47.378Z,98918.64
2022-12-15T18:02:20.740Z,98910.43
2022-12-15T18:04:55.432Z,98915.61
2022-12-15T18:07:31.599Z,98907.98
2022-12-15T18:10:08.303Z,98888.41
2022-12-15T18:12:41.490Z,98877.66
2022-12-15T18:15:21.973Z,98877.66
2022-12-15T18:17:55.249Z,98878.55
2022-12-15T18:20:30.859Z,98876.69
2022-12-15T18:23:04.013Z,98894.68
2022-12-15T18:25:37.103Z,98867.11
2022-12-15T18:28:18.459Z,98874.34
2022-12-15T18:30:53.666Z,98885.59
2022-12-15T18:33:27.578Z,98872.78
2022-12-15T18:36:00.938Z,98873.66
2022-12-15T18:38:34.414Z,98870.24
2022-12-15T18:41:09.429Z,98876.60
2022-12-15T18:43:43.746Z,98877.28
2022-12-15T18:46:20.504Z,98872.44
2022-12-15T18:48:58.978Z,98855.81
2022-12-15T18:51:32.393Z,98858.66
2022-12-15T18:54:26.710Z,98851.99
2022-12-15T18:56:59.859Z,98863.75
2022-12-15T18:59:33.346Z,98870.30
2022-12-15T19:02:08.126Z,98850.84
2022-12-15T19:04:41.439Z,98872.66
2022-12-15T19:07:14.905Z,98854.73
2022-12-15T19:09:47.992Z,98842.42
2022-12-15T19:12:21.710Z,98851.23
2022-12-15T19:14:55.369Z,98847.70
2022-12-15T19:18:04.523Z,98839.86
2022-12-15T19:23:20.159Z,98826.80
2022-12-15T19:25:54.635Z,98834.14
2022-12-15T19:28:27.983Z,98817.39
2022-12-15T19:31:04.269Z,98812.30
2022-12-15T19:33:37.514Z,98814.36
2022-12-15T19:36:16.725Z,98811.91
2022-12-15T19:38:51.824Z,98795.94
2022-12-15T19:41:29.743Z,98785.75
2022-12-15T19:44:08.440Z,98786.30
2022-12-15T19:46:47.682Z,98794.41
2022-12-15T19:49:28.101Z,98771.56
2022-12-15T19:52:03.452Z,98774.40
2022-12-15T19:54:38.139Z,98780.36
2022-12-15T19:57:14.343Z,98779.83
2022-12-15T19:59:47.867Z,98763.06
2022-12-15T20:02:22.441Z,98754.89
2022-12-15T20:04:58.673Z,98757.72
2022-12-15T20:07:41.216Z,98757.19
2022-12-15T20:10:27.859Z,98746.74
2022-12-15T20:12:58.726Z,98760.89
2022-12-15T20:15:32.109Z,98752.73
2022-12-15T20:18:08.307Z,98757.75
2022-12-15T20:20:47.183Z,98741.76
2022-12-15T20:23:26.604Z,98744.89
2022-12-15T20:26:02.986Z,98740.78
2022-12-15T20:28:38.794Z,98750.35
2022-12-15T20:31:16.293Z,98739.81
2022-12-15T20:33:50.505Z,98717.30
2022-12-15T20:36:26.741Z,98731.89
2022-12-15T20:39:02.387Z,98713.42
2022-12-15T20:41:40.344Z,98729.08
2022-12-15T20:44:15.400Z,98723.19
2022-12-15T20:46:49.347Z,98734.53
2022-12-15T20:49:24.293Z,98753.16
2022-12-15T20:51:58.256Z,98732.77
2022-12-15T20:54:31.586Z,98712.87
2022-12-15T20:57:05.414Z,98702.67
2022-12-15T20:59:39.091Z,98727.82
2022-12-15T21:02:21.011Z,98709.89
2022-12-15T21:04:55.921Z,98711.97
2022-12-15T21:07:29.315Z,98712.67
2022-12-15T21:10:02.945Z,98700.39
2022-12-15T21:12:37.042Z,98706.55
2022-12-15T21:15:17.173Z,98703.89
2022-12-15T21:18:16.991Z,98695.30
2022-12-15T21:20:26.809Z,98707.50
2022-12-15T21:23:02.641Z,98692.11
2022-12-15T21:25:36.290Z,98694.59
2022-12-15T21:28:13.407Z,98685.25
2022-12-15T21:30:46.826Z,98683.41
2022-12-15T21:33:20.878Z,98676.66
2022-12-15T21:35:54.219Z,98645.50
2022-12-15T21:38:33.923Z,98680.57
2022-12-15T21:41:10.942Z,98676.26
2022-12-15T21:43:47.650Z,98660.43
2022-12-15T21:46:27.787Z,98645.05
2022-12-15T21:49:18.501Z,98656.38
2022-12-15T21:51:55.127Z,98675.55
2022-12-15T21:54:31.637Z,98649.09
2022-12-15T21:57:05.351Z,98660.50
2022-12-15T21:59:38.700Z,98636.98
2022-12-15T22:02:25.280Z,98658.45
2022-12-15T22:04:58.738Z,98638.83
2022-12-15T22:07:32.776Z,98642.20
2022-12-15T22:10:07.239Z,98667.08
2022-12-15T22:12:42.278Z,98663.70
2022-12-15T22:18:01.702Z,98646.05
2022-12-15T22:20:34.863Z,98640.36
2022-12-15T22:23:08.281Z,98649.06
2022-12-15T22:25:41.420Z,98656.87
2022-12-15T22:28:22.661Z,98649.39
2022-12-15T22:30:57.263Z,98657.98
2022-12-15T22:33:31.901Z,98637.75
2022-12-15T22:36:05.272Z,98637.11
2022-12-15T22:38:38.384Z,98640.14
2022-12-15T22:41:18.826Z,98642.44
2022-12-15T22:43:54.424Z,98652.97
2022-12-15T22:46:28.248Z,98631.83
2022-12-15T22:49:01.628Z,98674.45
2022-12-15T22:51:37.245Z,98670.53
2022-12-15T22:54:19.883Z,98677.08
2022-12-15T22:56:56.226Z,98675.56
2022-12-15T22:59:32.443Z,98649.95
2022-12-15T23:02:06.391Z,98648.12
2022-12-15T23:04:39.811Z,98651.94
2022-12-15T23:07:13.103Z,98658.02
2022-12-15T23:09:46.386Z,98668.05
2022-12-15T23:12:22.350Z,98662.80
2022-12-15T23:15:21.786Z,98643.34
2022-12-15T23:17:55.268Z,98669.09
2022-12-15T23:20:28.446Z,98640.93
2022-12-15T23:23:03.503Z,98654.64
2022-12-15T23:25:37.264Z,98635.11
2022-12-15T23:28:10.771Z,98630.86
2022-12-15T23:30:43.997Z,98627.52
2022-12-15T23:33:17.533Z,98622.55
2022-12-15T23:35:51.139Z,98623.45
2022-12-15T23:38:25.761Z,98639.95
2022-12-15T23:40:59.371Z,98629.59
2022-12-15T23:43:35.498Z,98612.17
2022-12-15T23:46:09.805Z,98628.16
2022-12-15T23:48:45.607Z,98633.41
2022-12-15T23:51:20.446Z,98637.79
2022-12-15T23:53:53.735Z,98615.91
2022-12-15T23:56:28.108Z,98615.91
2022-12-15T23:59:02.162Z,98646.16
